sensor_id;sensor_type;location;lat;lon;timestamp;temperature;humidity
70300;HTU21D;57704;51.112;5.878;2023-06-10T00:00:46;23.65;48.37
70300;HTU21D;57704;51.112;5.878;2023-06-10T00:03:12;23.57;48.57
70300;HTU21D;57704;51.112;5.878;2023-06-10T00:05:38;23.56;48.56
70300;HTU21D;57704;51.112;5.878;2023-06-10T00:08:05;23.56;48.56
70300;HTU21D;57704;51.112;5.878;2023-06-10T00:10:37;23.55;48.91
70300;HTU21D;57704;51.112;5.878;2023-06-10T00:13:05;23.51;48.70
70300;HTU21D;57704;51.112;5.878;2023-06-10T00:15:34;23.50;48.82
70300;HTU21D;57704;51.112;5.878;2023-06-10T00:18:01;23.50;48.72
70300;HTU21D;57704;51.112;5.878;2023-06-10T00:20:28;23.49;48.93
70300;HTU21D;57704;51.112;5.878;2023-06-10T00:22:54;23.45;48.95
70300;HTU21D;57704;51.112;5.878;2023-06-10T00:25:21;23.44;48.96
70300;HTU21D;57704;51.112;5.878;2023-06-10T00:27:47;23.45;48.99
70300;HTU21D;57704;51.112;5.878;2023-06-10T00:30:13;23.49;48.96
70300;HTU21D;57704;51.112;5.878;2023-06-10T00:32:39;23.44;48.94
70300;HTU21D;57704;51.112;5.878;2023-06-10T00:35:05;23.38;49.05
70300;HTU21D;57704;51.112;5.878;2023-06-10T00:37:32;23.38;49.18
70300;HTU21D;57704;51.112;5.878;2023-06-10T00:40:01;23.39;49.21
70300;HTU21D;57704;51.112;5.878;2023-06-10T00:42:27;23.36;49.17
70300;HTU21D;57704;51.112;5.878;2023-06-10T00:44:54;23.30;49.23
70300;HTU21D;57704;51.112;5.878;2023-06-10T00:47:20;23.29;49.34
70300;HTU21D;57704;51.112;5.878;2023-06-10T00:49:48;23.26;49.45
70300;HTU21D;57704;51.112;5.878;2023-06-10T00:52:16;23.25;49.54
70300;HTU21D;57704;51.112;5.878;2023-06-10T00:54:44;23.25;49.47
70300;HTU21D;57704;51.112;5.878;2023-06-10T00:57:12;23.26;49.42
70300;HTU21D;57704;51.112;5.878;2023-06-10T00:59:41;23.31;49.42
70300;HTU21D;57704;51.112;5.878;2023-06-10T01:02:07;23.29;49.45
70300;HTU21D;57704;51.112;5.878;2023-06-10T01:04:34;23.23;49.50
70300;HTU21D;57704;51.112;5.878;2023-06-10T01:07:25;23.21;49.66
70300;HTU21D;57704;51.112;5.878;2023-06-10T01:10:02;23.20;49.74
70300;HTU21D;57704;51.112;5.878;2023-06-10T01:15:18;23.15;49.73
70300;HTU21D;57704;51.112;5.878;2023-06-10T01:17:59;23.14;49.78
70300;HTU21D;57704;51.112;5.878;2023-06-10T01:20:26;23.12;49.80
70300;HTU21D;57704;51.112;5.878;2023-06-10T01:22:56;23.10;49.79
70300;HTU21D;57704;51.112;5.878;2023-06-10T01:25:25;23.07;49.92
70300;HTU21D;57704;51.112;5.878;2023-06-10T01:28:07;23.05;50.00
70300;HTU21D;57704;51.112;5.878;2023-06-10T01:30:51;23.01;50.01
70300;HTU21D;57704;51.112;5.878;2023-06-10T01:33:29;22.97;50.05
70300;HTU21D;57704;51.112;5.878;2023-06-10T01:35:58;22.93;50.25
70300;HTU21D;57704;51.112;5.878;2023-06-10T01:38:32;22.86;50.44
70300;HTU21D;57704;51.112;5.878;2023-06-10T01:41:00;22.84;50.48
70300;HTU21D;57704;51.112;5.878;2023-06-10T01:43:26;22.81;50.50
70300;HTU21D;57704;51.112;5.878;2023-06-10T01:45:52;22.80;50.46
70300;HTU21D;57704;51.112;5.878;2023-06-10T01:48:18;22.78;50.65
70300;HTU21D;57704;51.112;5.878;2023-06-10T01:50:44;22.73;50.59
70300;HTU21D;57704;51.112;5.878;2023-06-10T01:53:10;22.72;50.65
70300;HTU21D;57704;51.112;5.878;2023-06-10T01:55:36;22.70;50.70
70300;HTU21D;57704;51.112;5.878;2023-06-10T01:58:02;22.68;50.79
70300;HTU21D;57704;51.112;5.878;2023-06-10T02:00:28;22.66;50.84
70300;HTU21D;57704;51.112;5.878;2023-06-10T02:02:54;22.64;50.87
70300;HTU21D;57704;51.112;5.878;2023-06-10T02:05:20;22.60;50.92
70300;HTU21D;57704;51.112;5.878;2023-06-10T02:07:46;22.54;51.07
70300;HTU21D;57704;51.112;5.878;2023-06-10T02:10:12;22.49;51.28
70300;HTU21D;57704;51.112;5.878;2023-06-10T02:12:38;22.43;51.45
70300;HTU21D;57704;51.112;5.878;2023-06-10T02:15:04;22.34;51.51
70300;HTU21D;57704;51.112;5.878;2023-06-10T02:17:30;22.29;51.67
70300;HTU21D;57704;51.112;5.878;2023-06-10T02:19:56;22.27;51.69
70300;HTU21D;57704;51.112;5.878;2023-06-10T02:22:23;22.24;51.79
70300;HTU21D;57704;51.112;5.878;2023-06-10T02:24:49;22.21;51.85
70300;HTU21D;57704;51.112;5.878;2023-06-10T02:27:16;22.18;51.89
70300;HTU21D;57704;51.112;5.878;2023-06-10T02:29:42;22.14;51.96
70300;HTU21D;57704;51.112;5.878;2023-06-10T02:32:10;22.11;52.09
70300;HTU21D;57704;51.112;5.878;2023-06-10T02:34:36;22.07;52.35
70300;HTU21D;57704;51.112;5.878;2023-06-10T02:37:03;22.03;52.40
70300;HTU21D;57704;51.112;5.878;2023-06-10T02:39:29;21.98;52.35
70300;HTU21D;57704;51.112;5.878;2023-06-10T02:41:56;21.94;52.46
70300;HTU21D;57704;51.112;5.878;2023-06-10T02:44:22;21.84;52.67
70300;HTU21D;57704;51.112;5.878;2023-06-10T02:46:49;21.70;53.01
70300;HTU21D;57704;51.112;5.878;2023-06-10T02:49:16;21.69;53.11
70300;HTU21D;57704;51.112;5.878;2023-06-10T02:51:42;21.65;53.13
70300;HTU21D;57704;51.112;5.878;2023-06-10T02:54:08;21.63;53.23
70300;HTU21D;57704;51.112;5.878;2023-06-10T02:56:35;21.64;53.28
70300;HTU21D;57704;51.112;5.878;2023-06-10T02:59:04;21.67;53.14
70300;HTU21D;57704;51.112;5.878;2023-06-10T03:01:33;21.67;53.07
70300;HTU21D;57704;51.112;5.878;2023-06-10T03:04:05;21.63;53.13
70300;HTU21D;57704;51.112;5.878;2023-06-10T03:06:33;21.57;53.24
70300;HTU21D;57704;51.112;5.878;2023-06-10T03:09:09;21.48;53.51
70300;HTU21D;57704;51.112;5.878;2023-06-10T03:11:37;21.47;53.59
70300;HTU21D;57704;51.112;5.878;2023-06-10T03:14:04;21.47;53.52
70300;HTU21D;57704;51.112;5.878;2023-06-10T03:16:31;21.42;53.66
70300;HTU21D;57704;51.112;5.878;2023-06-10T03:18:57;21.43;53.61
70300;HTU21D;57704;51.112;5.878;2023-06-10T03:21:24;21.45;53.66
70300;HTU21D;57704;51.112;5.878;2023-06-10T03:23:50;21.45;53.63
70300;HTU21D;57704;51.112;5.878;2023-06-10T03:26:16;21.44;53.62
70300;HTU21D;57704;51.112;5.878;2023-06-10T03:28:45;21.42;53.64
70300;HTU21D;57704;51.112;5.878;2023-06-10T03:31:11;21.40;53.71
70300;HTU21D;57704;51.112;5.878;2023-06-10T03:33:37;21.38;53.72
70300;HTU21D;57704;51.112;5.878;2023-06-10T03:36:05;21.39;53.75
70300;HTU21D;57704;51.112;5.878;2023-06-10T03:38:31;21.40;53.76
70300;HTU21D;57704;51.112;5.878;2023-06-10T03:40:57;21.39;53.84
70300;HTU21D;57704;51.112;5.878;2023-06-10T03:43:23;21.37;53.88
70300;HTU21D;57704;51.112;5.878;2023-06-10T03:45:51;21.32;53.87
70300;HTU21D;57704;51.112;5.878;2023-06-10T03:48:18;21.33;53.92
70300;HTU21D;57704;51.112;5.878;2023-06-10T03:50:48;21.32;54.07
70300;HTU21D;57704;51.112;5.878;2023-06-10T03:53:16;21.32;54.05
70300;HTU21D;57704;51.112;5.878;2023-06-10T03:55:43;21.31;54.06
70300;HTU21D;57704;51.112;5.878;2023-06-10T03:58:10;21.28;54.13
70300;HTU21D;57704;51.112;5.878;2023-06-10T04:00:39;21.25;54.23
70300;HTU21D;57704;51.112;5.878;2023-06-10T04:03:10;21.30;54.28
70300;HTU21D;57704;51.112;5.878;2023-06-10T04:05:43;21.32;54.18
70300;HTU21D;57704;51.112;5.878;2023-06-10T04:08:09;21.35;54.13
70300;HTU21D;57704;51.112;5.878;2023-06-10T04:10:35;21.36;54.13
70300;HTU21D;57704;51.112;5.878;2023-06-10T04:13:02;21.42;54.07
70300;HTU21D;57704;51.112;5.878;2023-06-10T04:15:33;21.45;53.96
70300;HTU21D;57704;51.112;5.878;2023-06-10T04:18:01;21.45;53.92
70300;HTU21D;57704;51.112;5.878;2023-06-10T04:20:27;21.45;54.02
70300;HTU21D;57704;51.112;5.878;2023-06-10T04:22:53;21.44;53.97
70300;HTU21D;57704;51.112;5.878;2023-06-10T04:25:19;21.39;54.08
70300;HTU21D;57704;51.112;5.878;2023-06-10T04:27:48;21.35;54.30
70300;HTU21D;57704;51.112;5.878;2023-06-10T04:30:16;21.38;54.30
70300;HTU21D;57704;51.112;5.878;2023-06-10T04:32:42;21.42;54.30
70300;HTU21D;57704;51.112;5.878;2023-06-10T04:35:14;21.36;54.46
70300;HTU21D;57704;51.112;5.878;2023-06-10T04:37:40;21.31;54.67
70300;HTU21D;57704;51.112;5.878;2023-06-10T04:40:08;21.28;54.73
70300;HTU21D;57704;51.112;5.878;2023-06-10T04:42:35;21.24;54.83
70300;HTU21D;57704;51.112;5.878;2023-06-10T04:45:01;21.27;54.98
70300;HTU21D;57704;51.112;5.878;2023-06-10T04:47:28;21.33;54.82
70300;HTU21D;57704;51.112;5.878;2023-06-10T04:49:54;21.34;54.86
70300;HTU21D;57704;51.112;5.878;2023-06-10T04:52:20;21.33;54.92
70300;HTU21D;57704;51.112;5.878;2023-06-10T04:54:46;21.37;54.89
70300;HTU21D;57704;51.112;5.878;2023-06-10T04:57:12;21.40;54.84
70300;HTU21D;57704;51.112;5.878;2023-06-10T04:59:38;21.48;54.79
70300;HTU21D;57704;51.112;5.878;2023-06-10T05:02:04;21.49;54.71
70300;HTU21D;57704;51.112;5.878;2023-06-10T05:04:31;21.54;54.69
70300;HTU21D;57704;51.112;5.878;2023-06-10T05:06:57;21.61;54.75
70300;HTU21D;57704;51.112;5.878;2023-06-10T05:09:22;21.64;54.59
70300;HTU21D;57704;51.112;5.878;2023-06-10T05:11:49;21.67;54.72
70300;HTU21D;57704;51.112;5.878;2023-06-10T05:14:15;21.66;54.79
70300;HTU21D;57704;51.112;5.878;2023-06-10T05:16:44;21.69;54.78
70300;HTU21D;57704;51.112;5.878;2023-06-10T05:19:10;21.78;54.72
70300;HTU21D;57704;51.112;5.878;2023-06-10T05:21:37;21.89;54.59
70300;HTU21D;57704;51.112;5.878;2023-06-10T05:24:03;21.98;54.59
70300;HTU21D;57704;51.112;5.878;2023-06-10T05:26:29;22.07;54.31
70300;HTU21D;57704;51.112;5.878;2023-06-10T05:28:57;22.07;54.28
70300;HTU21D;57704;51.112;5.878;2023-06-10T05:31:24;22.09;54.42
70300;HTU21D;57704;51.112;5.878;2023-06-10T05:33:50;22.13;54.27
70300;HTU21D;57704;51.112;5.878;2023-06-10T05:36:16;22.12;54.30
70300;HTU21D;57704;51.112;5.878;2023-06-10T05:38:41;22.11;54.42
70300;HTU21D;57704;51.112;5.878;2023-06-10T05:41:07;22.18;54.51
70300;HTU21D;57704;51.112;5.878;2023-06-10T05:43:33;22.25;54.33
70300;HTU21D;57704;51.112;5.878;2023-06-10T05:46:03;22.37;54.26
70300;HTU21D;57704;51.112;5.878;2023-06-10T05:48:28;22.47;54.10
70300;HTU21D;57704;51.112;5.878;2023-06-10T05:50:54;22.57;53.80
70300;HTU21D;57704;51.112;5.878;2023-06-10T05:53:20;22.62;53.75
70300;HTU21D;57704;51.112;5.878;2023-06-10T05:55:46;22.70;53.60
70300;HTU21D;57704;51.112;5.878;2023-06-10T05:58:13;22.76;53.47
70300;HTU21D;57704;51.112;5.878;2023-06-10T06:00:40;22.84;53.46
70300;HTU21D;57704;51.112;5.878;2023-06-10T06:03:10;22.97;53.33
70300;HTU21D;57704;51.112;5.878;2023-06-10T06:05:38;23.10;53.10
70300;HTU21D;57704;51.112;5.878;2023-06-10T06:08:05;23.22;52.72
70300;HTU21D;57704;51.112;5.878;2023-06-10T06:10:31;23.30;52.42
70300;HTU21D;57704;51.112;5.878;2023-06-10T06:12:57;23.41;52.29
70300;HTU21D;57704;51.112;5.878;2023-06-10T06:15:23;23.47;52.15
70300;HTU21D;57704;51.112;5.878;2023-06-10T06:17:49;23.55;51.91
70300;HTU21D;57704;51.112;5.878;2023-06-10T06:20:15;23.67;51.66
70300;HTU21D;57704;51.112;5.878;2023-06-10T06:22:41;23.75;51.37
70300;HTU21D;57704;51.112;5.878;2023-06-10T06:25:08;23.85;51.09
70300;HTU21D;57704;51.112;5.878;2023-06-10T06:27:34;23.94;50.92
70300;HTU21D;57704;51.112;5.878;2023-06-10T06:30:00;24.03;50.85
70300;HTU21D;57704;51.112;5.878;2023-06-10T06:32:26;24.19;50.27
70300;HTU21D;57704;51.112;5.878;2023-06-10T06:34:53;24.30;50.14
70300;HTU21D;57704;51.112;5.878;2023-06-10T06:37:24;24.42;49.92
70300;HTU21D;57704;51.112;5.878;2023-06-10T06:39:58;24.59;49.66
70300;HTU21D;57704;51.112;5.878;2023-06-10T06:42:24;24.70;49.31
70300;HTU21D;57704;51.112;5.878;2023-06-10T06:45:01;24.85;48.93
70300;HTU21D;57704;51.112;5.878;2023-06-10T06:47:27;25.02;48.64
70300;HTU21D;57704;51.112;5.878;2023-06-10T06:49:53;25.14;48.34
70300;HTU21D;57704;51.112;5.878;2023-06-10T06:52:19;25.27;47.83
70300;HTU21D;57704;51.112;5.878;2023-06-10T06:54:45;25.36;48.03
70300;HTU21D;57704;51.112;5.878;2023-06-10T06:57:11;25.49;47.51
70300;HTU21D;57704;51.112;5.878;2023-06-10T06:59:36;25.58;46.47
70300;HTU21D;57704;51.112;5.878;2023-06-10T07:02:03;25.65;46.58
70300;HTU21D;57704;51.112;5.878;2023-06-10T07:04:29;25.75;46.57
70300;HTU21D;57704;51.112;5.878;2023-06-10T07:06:56;25.94;46.55
70300;HTU21D;57704;51.112;5.878;2023-06-10T07:09:22;26.09;45.47
70300;HTU21D;57704;51.112;5.878;2023-06-10T07:11:47;26.26;45.24
70300;HTU21D;57704;51.112;5.878;2023-06-10T07:14:13;26.42;45.19
70300;HTU21D;57704;51.112;5.878;2023-06-10T07:16:39;26.53;45.28
70300;HTU21D;57704;51.112;5.878;2023-06-10T07:19:06;26.71;44.54
70300;HTU21D;57704;51.112;5.878;2023-06-10T07:21:32;26.71;44.63
70300;HTU21D;57704;51.112;5.878;2023-06-10T07:24:00;26.84;44.19
70300;HTU21D;57704;51.112;5.878;2023-06-10T07:26:28;26.97;43.67
70300;HTU21D;57704;51.112;5.878;2023-06-10T07:28:54;27.07;43.20
70300;HTU21D;57704;51.112;5.878;2023-06-10T07:31:20;27.27;43.75
70300;HTU21D;57704;51.112;5.878;2023-06-10T07:33:47;27.49;43.32
70300;HTU21D;57704;51.112;5.878;2023-06-10T07:36:12;27.75;41.99
70300;HTU21D;57704;51.112;5.878;2023-06-10T07:38:38;27.87;40.51
70300;HTU21D;57704;51.112;5.878;2023-06-10T07:41:04;28.06;40.81
70300;HTU21D;57704;51.112;5.878;2023-06-10T07:43:30;28.23;41.04
70300;HTU21D;57704;51.112;5.878;2023-06-10T07:45:56;28.48;40.67
70300;HTU21D;57704;51.112;5.878;2023-06-10T07:48:23;28.89;40.64
70300;HTU21D;57704;51.112;5.878;2023-06-10T07:50:49;29.23;40.13
70300;HTU21D;57704;51.112;5.878;2023-06-10T07:53:15;29.49;38.50
70300;HTU21D;57704;51.112;5.878;2023-06-10T07:55:42;29.61;38.48
70300;HTU21D;57704;51.112;5.878;2023-06-10T07:58:08;29.85;38.22
70300;HTU21D;57704;51.112;5.878;2023-06-10T08:00:35;30.08;37.19
70300;HTU21D;57704;51.112;5.878;2023-06-10T08:03:01;30.04;36.92
70300;HTU21D;57704;51.112;5.878;2023-06-10T08:05:27;30.07;36.75
70300;HTU21D;57704;51.112;5.878;2023-06-10T08:07:53;30.31;36.67
70300;HTU21D;57704;51.112;5.878;2023-06-10T08:10:19;30.44;36.53
70300;HTU21D;57704;51.112;5.878;2023-06-10T08:12:46;30.56;35.73
70300;HTU21D;57704;51.112;5.878;2023-06-10T08:15:12;30.61;34.87
70300;HTU21D;57704;51.112;5.878;2023-06-10T08:17:39;30.71;34.95
70300;HTU21D;57704;51.112;5.878;2023-06-10T08:20:06;30.74;34.79
70300;HTU21D;57704;51.112;5.878;2023-06-10T08:22:32;30.68;34.11
70300;HTU21D;57704;51.112;5.878;2023-06-10T08:24:59;30.71;34.06
70300;HTU21D;57704;51.112;5.878;2023-06-10T08:27:25;30.70;33.58
70300;HTU21D;57704;51.112;5.878;2023-06-10T08:29:51;30.83;33.44
70300;HTU21D;57704;51.112;5.878;2023-06-10T08:32:17;30.83;33.27
70300;HTU21D;57704;51.112;5.878;2023-06-10T08:34:43;30.70;32.98
70300;HTU21D;57704;51.112;5.878;2023-06-10T08:37:09;30.74;33.55
70300;HTU21D;57704;51.112;5.878;2023-06-10T08:39:35;30.80;33.22
70300;HTU21D;57704;51.112;5.878;2023-06-10T08:42:21;30.93;33.24
70300;HTU21D;57704;51.112;5.878;2023-06-10T08:44:55;31.26;32.81
70300;HTU21D;57704;51.112;5.878;2023-06-10T08:47:23;31.60;31.99
70300;HTU21D;57704;51.112;5.878;2023-06-10T08:49:51;31.55;32.06
70300;HTU21D;57704;51.112;5.878;2023-06-10T08:52:20;31.45;32.05
70300;HTU21D;57704;51.112;5.878;2023-06-10T08:55:04;31.46;31.76
70300;HTU21D;57704;51.112;5.878;2023-06-10T08:57:31;31.54;31.48
70300;HTU21D;57704;51.112;5.878;2023-06-10T08:59:58;31.61;31.16
70300;HTU21D;57704;51.112;5.878;2023-06-10T09:02:24;31.63;30.77
70300;HTU21D;57704;51.112;5.878;2023-06-10T09:04:50;31.64;31.29
70300;HTU21D;57704;51.112;5.878;2023-06-10T09:07:17;31.95;31.04
70300;HTU21D;57704;51.112;5.878;2023-06-10T09:09:44;32.29;30.58
70300;HTU21D;57704;51.112;5.878;2023-06-10T09:12:13;32.41;30.09
70300;HTU21D;57704;51.112;5.878;2023-06-10T09:14:39;32.48;29.42
70300;HTU21D;57704;51.112;5.878;2023-06-10T09:17:06;32.37;29.77
70300;HTU21D;57704;51.112;5.878;2023-06-10T09:19:33;32.50;29.80
70300;HTU21D;57704;51.112;5.878;2023-06-10T09:22:01;32.85;29.32
70300;HTU21D;57704;51.112;5.878;2023-06-10T09:24:28;33.02;28.82
70300;HTU21D;57704;51.112;5.878;2023-06-10T09:27:04;33.15;28.93
70300;HTU21D;57704;51.112;5.878;2023-06-10T09:29:45;33.34;28.64
70300;HTU21D;57704;51.112;5.878;2023-06-10T09:32:13;33.37;28.84
70300;HTU21D;57704;51.112;5.878;2023-06-10T09:34:39;33.41;28.58
70300;HTU21D;57704;51.112;5.878;2023-06-10T09:37:06;33.52;28.71
70300;HTU21D;57704;51.112;5.878;2023-06-10T09:39:34;33.72;27.80
70300;HTU21D;57704;51.112;5.878;2023-06-10T09:41:59;33.68;27.84
70300;HTU21D;57704;51.112;5.878;2023-06-10T09:44:25;33.92;27.35
70300;HTU21D;57704;51.112;5.878;2023-06-10T09:46:52;33.89;27.17
70300;HTU21D;57704;51.112;5.878;2023-06-10T09:49:20;33.76;27.61
70300;HTU21D;57704;51.112;5.878;2023-06-10T09:51:54;33.79;27.47
70300;HTU21D;57704;51.112;5.878;2023-06-10T09:54:21;33.88;27.73
70300;HTU21D;57704;51.112;5.878;2023-06-10T09:56:49;34.19;27.56
70300;HTU21D;57704;51.112;5.878;2023-06-10T09:59:15;34.45;27.04
70300;HTU21D;57704;51.112;5.878;2023-06-10T10:01:43;34.60;27.27
70300;HTU21D;57704;51.112;5.878;2023-06-10T10:04:09;34.78;26.81
70300;HTU21D;57704;51.112;5.878;2023-06-10T10:06:35;34.90;26.75
70300;HTU21D;57704;51.112;5.878;2023-06-10T10:09:01;35.10;26.45
70300;HTU21D;57704;51.112;5.878;2023-06-10T10:11:32;35.07;26.06
70300;HTU21D;57704;51.112;5.878;2023-06-10T10:14:04;34.88;26.36
70300;HTU21D;57704;51.112;5.878;2023-06-10T10:16:36;34.92;25.94
70300;HTU21D;57704;51.112;5.878;2023-06-10T10:19:32;34.93;25.82
70300;HTU21D;57704;51.112;5.878;2023-06-10T10:22:07;34.83;25.97
70300;HTU21D;57704;51.112;5.878;2023-06-10T10:24:43;35.01;25.59
70300;HTU21D;57704;51.112;5.878;2023-06-10T10:27:21;34.93;25.56
70300;HTU21D;57704;51.112;5.878;2023-06-10T10:29:54;35.11;25.30
70300;HTU21D;57704;51.112;5.878;2023-06-10T10:32:29;35.33;24.40
70300;HTU21D;57704;51.112;5.878;2023-06-10T10:35:10;35.62;24.51
70300;HTU21D;57704;51.112;5.878;2023-06-10T10:37:39;35.62;24.60
70300;HTU21D;57704;51.112;5.878;2023-06-10T10:40:07;35.87;24.39
70300;HTU21D;57704;51.112;5.878;2023-06-10T10:42:36;36.00;23.74
70300;HTU21D;57704;51.112;5.878;2023-06-10T10:45:05;36.13;23.73
70300;HTU21D;57704;51.112;5.878;2023-06-10T10:47:36;36.30;23.25
70300;HTU21D;57704;51.112;5.878;2023-06-10T10:50:17;36.11;23.50
70300;HTU21D;57704;51.112;5.878;2023-06-10T10:53:03;36.33;23.27
70300;HTU21D;57704;51.112;5.878;2023-06-10T10:55:30;36.52;22.79
70300;HTU21D;57704;51.112;5.878;2023-06-10T10:58:03;36.44;22.63
70300;HTU21D;57704;51.112;5.878;2023-06-10T11:00:41;36.59;21.89
70300;HTU21D;57704;51.112;5.878;2023-06-10T11:03:15;36.66;21.82
70300;HTU21D;57704;51.112;5.878;2023-06-10T11:05:46;36.72;21.44
70300;HTU21D;57704;51.112;5.878;2023-06-10T11:16:28;37.97;20.08
70300;HTU21D;57704;51.112;5.878;2023-06-10T11:18:56;38.17;19.48
70300;HTU21D;57704;51.112;5.878;2023-06-10T11:21:25;38.32;19.22
70300;HTU21D;57704;51.112;5.878;2023-06-10T11:23:51;38.70;18.82
70300;HTU21D;57704;51.112;5.878;2023-06-10T11:31:32;38.96;17.67
70300;HTU21D;57704;51.112;5.878;2023-06-10T11:34:04;39.07;17.52
70300;HTU21D;57704;51.112;5.878;2023-06-10T11:36:32;39.21;17.21
70300;HTU21D;57704;51.112;5.878;2023-06-10T11:39:04;39.17;17.58
70300;HTU21D;57704;51.112;5.878;2023-06-10T11:41:33;39.09;17.19
70300;HTU21D;57704;51.112;5.878;2023-06-10T11:44:07;39.44;16.80
70300;HTU21D;57704;51.112;5.878;2023-06-10T11:46:34;40.10;16.35
70300;HTU21D;57704;51.112;5.878;2023-06-10T11:49:01;40.91;15.71
70300;HTU21D;57704;51.112;5.878;2023-06-10T11:51:34;41.16;15.25
70300;HTU21D;57704;51.112;5.878;2023-06-10T11:54:01;40.63;14.74
70300;HTU21D;57704;51.112;5.878;2023-06-10T11:56:28;40.61;15.50
70300;HTU21D;57704;51.112;5.878;2023-06-10T11:59:00;40.92;15.37
70300;HTU21D;57704;51.112;5.878;2023-06-10T12:01:32;41.27;15.27
70300;HTU21D;57704;51.112;5.878;2023-06-10T12:04:09;41.57;15.26
70300;HTU21D;57704;51.112;5.878;2023-06-10T12:09:12;41.35;14.21
70300;HTU21D;57704;51.112;5.878;2023-06-10T12:11:39;41.19;13.94
70300;HTU21D;57704;51.112;5.878;2023-06-10T12:14:05;41.13;14.29
70300;HTU21D;57704;51.112;5.878;2023-06-10T12:16:31;41.07;14.07
70300;HTU21D;57704;51.112;5.878;2023-06-10T12:19:02;40.60;14.71
70300;HTU21D;57704;51.112;5.878;2023-06-10T12:21:29;40.55;14.93
70300;HTU21D;57704;51.112;5.878;2023-06-10T12:24:10;40.65;14.74
70300;HTU21D;57704;51.112;5.878;2023-06-10T12:29:19;40.68;14.11
70300;HTU21D;57704;51.112;5.878;2023-06-10T12:32:03;40.93;14.33
70300;HTU21D;57704;51.112;5.878;2023-06-10T12:34:38;40.59;14.13
70300;HTU21D;57704;51.112;5.878;2023-06-10T12:37:10;40.22;14.57
70300;HTU21D;57704;51.112;5.878;2023-06-10T12:39:40;39.84;14.53
70300;HTU21D;57704;51.112;5.878;2023-06-10T12:42:06;39.78;15.06
70300;HTU21D;57704;51.112;5.878;2023-06-10T12:44:39;39.68;15.06
70300;HTU21D;57704;51.112;5.878;2023-06-10T12:47:10;39.55;15.42
70300;HTU21D;57704;51.112;5.878;2023-06-10T12:49:38;39.48;15.45
70300;HTU21D;57704;51.112;5.878;2023-06-10T12:52:05;39.58;14.96
70300;HTU21D;57704;51.112;5.878;2023-06-10T12:54:32;39.26;15.05
70300;HTU21D;57704;51.112;5.878;2023-06-10T12:56:58;39.21;15.26
70300;HTU21D;57704;51.112;5.878;2023-06-10T12:59:23;39.15;15.04
70300;HTU21D;57704;51.112;5.878;2023-06-10T13:01:51;39.09;15.22
70300;HTU21D;57704;51.112;5.878;2023-06-10T13:04:18;39.37;15.16
70300;HTU21D;57704;51.112;5.878;2023-06-10T13:06:44;39.58;14.48
70300;HTU21D;57704;51.112;5.878;2023-06-10T13:09:10;39.03;14.48
70300;HTU21D;57704;51.112;5.878;2023-06-10T13:11:36;38.33;15.19
70300;HTU21D;57704;51.112;5.878;2023-06-10T13:14:04;38.11;16.01
70300;HTU21D;57704;51.112;5.878;2023-06-10T13:16:33;38.09;16.53
70300;HTU21D;57704;51.112;5.878;2023-06-10T13:18:59;38.30;16.46
70300;HTU21D;57704;51.112;5.878;2023-06-10T13:21:27;38.35;16.64
70300;HTU21D;57704;51.112;5.878;2023-06-10T13:23:53;38.58;16.61
70300;HTU21D;57704;51.112;5.878;2023-06-10T13:26:19;38.79;16.38
70300;HTU21D;57704;51.112;5.878;2023-06-10T13:28:46;38.65;16.40
70300;HTU21D;57704;51.112;5.878;2023-06-10T13:31:12;38.49;16.71
70300;HTU21D;57704;51.112;5.878;2023-06-10T13:33:38;38.36;17.14
70300;HTU21D;57704;51.112;5.878;2023-06-10T13:36:05;38.16;17.39
70300;HTU21D;57704;51.112;5.878;2023-06-10T13:38:31;37.93;17.76
70300;HTU21D;57704;51.112;5.878;2023-06-10T13:40:57;37.97;17.77
70300;HTU21D;57704;51.112;5.878;2023-06-10T13:43:23;38.03;17.93
70300;HTU21D;57704;51.112;5.878;2023-06-10T13:45:49;37.89;17.83
70300;HTU21D;57704;51.112;5.878;2023-06-10T13:48:15;37.31;17.81
70300;HTU21D;57704;51.112;5.878;2023-06-10T13:50:41;36.64;18.83
70300;HTU21D;57704;51.112;5.878;2023-06-10T13:53:11;36.42;19.23
70300;HTU21D;57704;51.112;5.878;2023-06-10T13:55:37;36.56;19.38
70300;HTU21D;57704;51.112;5.878;2023-06-10T13:58:03;36.70;19.20
70300;HTU21D;57704;51.112;5.878;2023-06-10T14:00:29;36.85;19.11
70300;HTU21D;57704;51.112;5.878;2023-06-10T14:02:55;36.71;19.24
70300;HTU21D;57704;51.112;5.878;2023-06-10T14:05:21;36.62;19.41
70300;HTU21D;57704;51.112;5.878;2023-06-10T14:07:48;36.64;19.28
70300;HTU21D;57704;51.112;5.878;2023-06-10T14:10:14;36.54;19.25
70300;HTU21D;57704;51.112;5.878;2023-06-10T14:12:39;36.44;19.40
70300;HTU21D;57704;51.112;5.878;2023-06-10T14:15:06;36.41;19.66
70300;HTU21D;57704;51.112;5.878;2023-06-10T14:17:32;36.54;19.50
70300;HTU21D;57704;51.112;5.878;2023-06-10T14:19:58;36.56;19.41
70300;HTU21D;57704;51.112;5.878;2023-06-10T14:22:24;36.54;19.36
70300;HTU21D;57704;51.112;5.878;2023-06-10T14:24:50;36.54;18.93
70300;HTU21D;57704;51.112;5.878;2023-06-10T14:27:15;36.51;18.77
70300;HTU21D;57704;51.112;5.878;2023-06-10T14:29:41;36.30;19.16
70300;HTU21D;57704;51.112;5.878;2023-06-10T14:32:07;36.37;18.83
70300;HTU21D;57704;51.112;5.878;2023-06-10T14:34:34;36.17;19.04
70300;HTU21D;57704;51.112;5.878;2023-06-10T14:37:00;36.13;19.43
70300;HTU21D;57704;51.112;5.878;2023-06-10T14:39:26;36.23;19.14
70300;HTU21D;57704;51.112;5.878;2023-06-10T14:41:52;36.33;19.25
70300;HTU21D;57704;51.112;5.878;2023-06-10T14:44:18;36.44;19.57
70300;HTU21D;57704;51.112;5.878;2023-06-10T14:46:44;36.42;19.62
70300;HTU21D;57704;51.112;5.878;2023-06-10T14:49:10;36.51;20.03
70300;HTU21D;57704;51.112;5.878;2023-06-10T14:51:36;36.76;19.63
70300;HTU21D;57704;51.112;5.878;2023-06-10T14:54:02;36.68;19.86
70300;HTU21D;57704;51.112;5.878;2023-06-10T14:56:28;36.58;20.07
70300;HTU21D;57704;51.112;5.878;2023-06-10T14:58:55;36.39;19.99
70300;HTU21D;57704;51.112;5.878;2023-06-10T15:01:21;36.01;20.31
70300;HTU21D;57704;51.112;5.878;2023-06-10T15:03:47;35.64;20.87
70300;HTU21D;57704;51.112;5.878;2023-06-10T15:06:13;35.34;21.21
70300;HTU21D;57704;51.112;5.878;2023-06-10T15:08:42;35.04;21.64
70300;HTU21D;57704;51.112;5.878;2023-06-10T15:11:09;34.84;21.89
70300;HTU21D;57704;51.112;5.878;2023-06-10T15:13:35;34.62;22.06
70300;HTU21D;57704;51.112;5.878;2023-06-10T15:16:01;34.42;21.99
70300;HTU21D;57704;51.112;5.878;2023-06-10T15:18:27;34.18;22.24
70300;HTU21D;57704;51.112;5.878;2023-06-10T15:20:53;33.96;22.57
70300;HTU21D;57704;51.112;5.878;2023-06-10T15:23:19;33.92;22.73
70300;HTU21D;57704;51.112;5.878;2023-06-10T15:25:45;34.01;22.64
70300;HTU21D;57704;51.112;5.878;2023-06-10T15:28:12;34.20;22.52
70300;HTU21D;57704;51.112;5.878;2023-06-10T15:30:38;34.37;22.46
70300;HTU21D;57704;51.112;5.878;2023-06-10T15:33:04;34.49;22.41
70300;HTU21D;57704;51.112;5.878;2023-06-10T15:35:32;34.54;22.31
70300;HTU21D;57704;51.112;5.878;2023-06-10T15:37:58;34.49;22.31
70300;HTU21D;57704;51.112;5.878;2023-06-10T15:40:24;34.55;22.36